Accueil
METAR-TAF:

METAR-TAF

Aéroports :

Aéroport international Stanfield d'Halifax

Halifax, Nouvelle-Écosse, Canada

latitude: 44-53N, longitude: 063-30W, altitude: 145 m

Observation

Le bulletin a été fait il y a 1 heure et 8 minutes, à 02:00 UTC
Vent 12 kt de nord-ouest
Température -7°C
Humidité 86%
Pression 1022 hPa
Visibilité: 24.1 km
Ciel clair

METAR: CYHZ 230200Z 31012KT 15SM SKC M07/M09 A3019 RMK SLP234

Heure: 23:08 (03:08 UTC)

Prévision

Le bulletin a été fait il y a 28 minutes, à 02:40 UTC
Prévision valable du 23 à 03 UTC au 23 à 24 UTC
Vent 12 kt de nord-ouest
Visibilité: 10 km
Ciel clair
A partir de 23 à 1600 UTC
Vent 15 kt de ouest/nord-ouest
Visibilité: 10 km
Quelques nuages à une hauteur de 1500 ft
Evoluant progressivement
du 23 à 22 UTC au 23 à 24 UTC
Vent 10 kt de sud/sud-ouest

TAF: CYHZ 230240Z 2303/2324 31012KT P6SM SKC FM231600 30015KT P6SM FEW015 BECMG 2322/2324 21010KT RMK NXT FCST BY 230600Z

Observations et prévisions météorologiques de plus de 4000 aéroports (messages METAR et TAF).

Les stations disponibles sont représentées par des disques jaunes et rouges sur la carte.

Passer la souris dessus pour voir le nom de la station.

Cliquer dessus pour voir les observations et prévisions météorologiques.

Pour changer de carte: cliquez sur les boutons verts avec une croix noire pour zoomer, sur le bouton vert avec un tiret pour effectuer un zoom arrière, ou sur les flèches vertes pour les cartes adjacentes.


METAR-TAF: